createdAt,value
2022-10-06T00:02:44.910Z,70.97
2022-10-06T00:07:49.251Z,71.29
2022-10-06T00:12:53.579Z,70.84
2022-10-06T00:17:59.837Z,70.04
2022-10-06T00:23:03.471Z,70.23
2022-10-06T00:28:07.604Z,70.27
2022-10-06T00:33:16.406Z,70.21
2022-10-06T00:38:20.598Z,70.99
2022-10-06T00:43:46.009Z,71.33
2022-10-06T00:48:55.047Z,70.42
2022-10-06T00:53:59.013Z,70.56
2022-10-06T00:59:03.032Z,70.33
2022-10-06T01:04:13.171Z,70.44
2022-10-06T01:09:19.056Z,70.38
2022-10-06T01:14:24.713Z,70.37
2022-10-06T01:19:41.853Z,70.26
2022-10-06T01:24:50.757Z,70.30
2022-10-06T01:29:56.506Z,70.25
2022-10-06T01:34:59.814Z,70.48
2022-10-06T01:40:05.801Z,70.77
2022-10-06T01:45:09.761Z,70.62
2022-10-06T01:50:13.832Z,70.63
2022-10-06T01:55:20.161Z,70.67
2022-10-06T02:00:25.058Z,70.71
2022-10-06T02:05:30.029Z,70.38
2022-10-06T02:10:35.489Z,70.42
2022-10-06T02:15:39.703Z,70.43
2022-10-06T02:20:44.517Z,70.59
2022-10-06T02:25:49.748Z,70.30
2022-10-06T02:30:55.043Z,70.58
2022-10-06T02:35:59.475Z,70.95
2022-10-06T02:41:05.472Z,71.14
2022-10-06T02:46:13.233Z,71.01
2022-10-06T02:51:20.169Z,71.00
2022-10-06T02:56:27.538Z,71.17
2022-10-06T03:01:32.026Z,70.85
2022-10-06T03:06:36.090Z,70.84
2022-10-06T03:11:43.428Z,71.31
2022-10-06T03:16:47.490Z,70.97
2022-10-06T03:21:51.696Z,70.76
2022-10-06T03:26:57.130Z,71.19
2022-10-06T03:32:01.655Z,70.88
2022-10-06T03:37:05.788Z,71.08
2022-10-06T03:42:11.257Z,71.30
2022-10-06T03:47:17.498Z,70.95
2022-10-06T03:52:25.743Z,71.18
2022-10-06T03:57:31.502Z,71.08
2022-10-06T04:02:34.800Z,70.98
2022-10-06T04:07:38.848Z,71.20
2022-10-06T04:12:43.574Z,71.20
2022-10-06T04:17:47.594Z,71.74
2022-10-06T04:22:50.916Z,71.38
2022-10-06T04:27:56.375Z,71.46
2022-10-06T04:32:59.820Z,71.23
2022-10-06T04:38:03.863Z,71.34
2022-10-06T04:43:08.711Z,71.63
2022-10-06T04:48:12.637Z,72.44
2022-10-06T04:53:16.008Z,71.70
2022-10-06T04:58:21.484Z,71.08
2022-10-06T05:03:24.890Z,71.03
2022-10-06T05:08:29.192Z,71.04
2022-10-06T05:13:34.113Z,70.96
2022-10-06T05:18:38.645Z,71.22
2022-10-06T05:23:43.170Z,70.81
2022-10-06T05:28:48.668Z,70.85
2022-10-06T05:33:52.203Z,70.62
2022-10-06T05:38:56.949Z,70.37
2022-10-06T05:44:01.451Z,70.09
2022-10-06T05:49:07.948Z,69.79
2022-10-06T05:54:11.314Z,69.60
2022-10-06T05:59:16.940Z,68.90
2022-10-06T06:04:20.489Z,68.60
2022-10-06T06:09:24.735Z,69.07
2022-10-06T06:14:43.390Z,68.81
2022-10-06T06:19:47.799Z,68.93
2022-10-06T06:24:51.386Z,68.57
2022-10-06T06:29:58.202Z,68.04
2022-10-06T06:35:01.539Z,68.45
2022-10-06T06:40:08.407Z,67.63
2022-10-06T06:45:14.232Z,68.01
2022-10-06T06:50:19.554Z,67.55
2022-10-06T06:55:23.632Z,68.52
2022-10-06T07:00:33.827Z,68.47
2022-10-06T07:05:41.075Z,68.37
2022-10-06T07:10:46.163Z,68.67
2022-10-06T07:16:09.853Z,68.26
2022-10-06T07:21:32.720Z,68.59
2022-10-06T07:26:36.818Z,68.29
2022-10-06T07:31:44.762Z,68.13
2022-10-06T07:36:53.550Z,68.58
2022-10-06T07:41:57.593Z,68.32
2022-10-06T07:47:03.283Z,68.61
2022-10-06T07:52:07.403Z,68.82
2022-10-06T07:57:11.508Z,69.61
2022-10-06T08:02:16.259Z,69.00
2022-10-06T08:07:20.111Z,69.00
2022-10-06T08:12:37.843Z,68.76
2022-10-06T08:17:44.388Z,68.75
2022-10-06T08:22:49.327Z,69.04
2022-10-06T08:27:53.727Z,69.10
2022-10-06T08:32:59.083Z,69.21
2022-10-06T08:38:03.111Z,69.25
2022-10-06T08:43:18.011Z,68.67
2022-10-06T08:48:30.055Z,69.36
2022-10-06T08:53:39.599Z,69.55
2022-10-06T08:58:54.338Z,69.13
2022-10-06T09:04:02.394Z,69.22
2022-10-06T09:09:16.020Z,69.72
2022-10-06T09:14:22.741Z,69.89
2022-10-06T09:19:39.580Z,70.19
2022-10-06T09:24:47.164Z,69.95
2022-10-06T09:29:52.765Z,69.58
2022-10-06T09:34:59.949Z,69.38
2022-10-06T09:40:04.102Z,69.03
2022-10-06T09:45:25.475Z,69.40
2022-10-06T09:50:31.486Z,68.56
2022-10-06T09:55:45.481Z,67.99
2022-10-06T10:00:54.527Z,67.99
2022-10-06T10:06:03.087Z,67.97
2022-10-06T10:11:33.362Z,67.55
2022-10-06T10:16:37.993Z,68.07
2022-10-06T10:21:46.741Z,67.45
2022-10-06T10:26:58.747Z,67.75
2022-10-06T10:32:13.237Z,67.32
2022-10-06T10:37:22.746Z,67.95
2022-10-06T10:42:32.554Z,68.05
2022-10-06T10:47:39.848Z,67.83
2022-10-06T10:52:47.580Z,67.45
2022-10-06T10:57:53.762Z,67.72
2022-10-06T11:02:59.890Z,67.81
2022-10-06T11:08:13.139Z,67.03
2022-10-06T11:13:24.741Z,67.34
2022-10-06T11:18:44.937Z,67.15
2022-10-06T11:23:55.383Z,66.39
2022-10-06T11:29:05.607Z,66.65
2022-10-06T11:34:11.290Z,67.09
2022-10-06T11:39:26.607Z,67.02
2022-10-06T11:44:37.149Z,67.04
2022-10-06T11:49:53.046Z,66.97
2022-10-06T11:55:08.676Z,67.24
2022-10-06T12:00:45.228Z,66.44
2022-10-06T12:05:56.283Z,65.80
2022-10-06T12:11:01.661Z,65.55
2022-10-06T12:21:55.001Z,65.23
2022-10-06T12:27:25.738Z,66.22
2022-10-06T12:32:46.599Z,66.38
2022-10-06T12:37:54.455Z,66.65
2022-10-06T12:43:58.588Z,66.28
2022-10-06T12:49:14.297Z,66.45
2022-10-06T12:54:21.673Z,66.62
2022-10-06T12:59:28.775Z,66.42
2022-10-06T13:04:38.278Z,66.08
2022-10-06T13:09:42.992Z,66.57
2022-10-06T13:14:48.854Z,66.13
2022-10-06T13:19:54.593Z,66.08
2022-10-06T13:25:01.569Z,66.33
2022-10-06T13:30:20.355Z,65.89
2022-10-06T13:35:27.642Z,66.68
2022-10-06T13:40:43.974Z,65.98
2022-10-06T13:45:50.669Z,66.30
2022-10-06T13:50:55.123Z,66.41
2022-10-06T13:56:00.124Z,66.28
2022-10-06T14:01:05.703Z,66.64
2022-10-06T14:06:16.610Z,67.05
2022-10-06T14:11:25.589Z,66.96
2022-10-06T14:16:33.069Z,66.94
2022-10-06T14:21:42.666Z,67.29
2022-10-06T14:26:47.717Z,67.35
2022-10-06T14:31:53.208Z,67.38
2022-10-06T14:36:58.094Z,66.91
2022-10-06T14:42:02.107Z,67.42
2022-10-06T14:47:10.059Z,67.90
2022-10-06T14:52:14.661Z,67.41
2022-10-06T14:57:18.745Z,67.40
2022-10-06T15:02:23.669Z,67.52
2022-10-06T15:07:45.636Z,67.78
2022-10-06T15:12:49.471Z,68.38
2022-10-06T15:17:55.464Z,68.45
2022-10-06T15:22:58.734Z,68.53
2022-10-06T15:28:22.901Z,68.28
2022-10-06T15:33:30.649Z,69.35
2022-10-06T15:38:38.497Z,68.42
2022-10-06T15:43:57.474Z,68.53
2022-10-06T15:49:04.481Z,68.84
2022-10-06T15:54:08.377Z,69.20
2022-10-06T15:59:12.662Z,68.65
2022-10-06T16:04:26.188Z,69.50
2022-10-06T16:09:32.175Z,68.87
2022-10-06T16:14:36.447Z,69.20
2022-10-06T16:19:42.141Z,68.96
2022-10-06T16:24:45.647Z,68.96
2022-10-06T16:29:49.981Z,69.43
2022-10-06T16:34:54.790Z,68.88
2022-10-06T16:39:59.229Z,69.15
2022-10-06T16:45:02.873Z,69.42
2022-10-06T16:50:10.348Z,69.62
2022-10-06T16:55:15.060Z,69.45
2022-10-06T17:00:19.383Z,68.86
2022-10-06T17:05:25.203Z,69.67
2022-10-06T17:10:29.591Z,69.73
2022-10-06T17:15:33.734Z,70.00
2022-10-06T17:20:39.872Z,69.93
2022-10-06T17:25:44.072Z,70.04
2022-10-06T17:30:53.986Z,70.12
2022-10-06T17:36:03.779Z,69.83
2022-10-06T17:41:10.560Z,70.30
2022-10-06T17:46:19.692Z,69.99
2022-10-06T17:51:27.005Z,70.07
2022-10-06T17:56:34.628Z,70.36
2022-10-06T18:01:38.971Z,70.35
2022-10-06T18:06:46.296Z,70.33
2022-10-06T18:11:56.673Z,71.31
2022-10-06T18:17:03.220Z,71.02
2022-10-06T18:22:12.514Z,70.96
2022-10-06T18:27:16.690Z,71.23
2022-10-06T18:37:46.281Z,70.92
2022-10-06T18:42:50.098Z,71.27
2022-10-06T18:48:11.804Z,71.34
2022-10-06T18:53:16.735Z,71.39
2022-10-06T18:58:21.269Z,70.83
2022-10-06T19:03:28.487Z,70.56
2022-10-06T19:08:34.411Z,70.39
2022-10-06T19:13:38.420Z,71.08
2022-10-06T19:18:42.827Z,71.34
2022-10-06T19:23:47.656Z,70.96
2022-10-06T19:28:54.497Z,71.42
2022-10-06T19:34:02.245Z,71.67
2022-10-06T19:39:11.367Z,70.76
2022-10-06T19:44:14.834Z,70.97
2022-10-06T19:49:19.711Z,70.86
2022-10-06T19:54:24.453Z,70.48
2022-10-06T19:59:28.466Z,70.92
2022-10-06T20:04:32.231Z,70.37
2022-10-06T20:09:37.999Z,70.78
2022-10-06T20:14:41.344Z,71.14
2022-10-06T20:19:46.197Z,71.46
2022-10-06T20:24:51.572Z,71.33
2022-10-06T20:29:55.959Z,71.26
2022-10-06T20:34:59.405Z,71.84
2022-10-06T20:40:22.209Z,71.78
2022-10-06T20:45:26.339Z,71.48
2022-10-06T20:50:32.428Z,71.89
2022-10-06T20:55:37.907Z,71.86
2022-10-06T21:00:41.991Z,72.04
2022-10-06T21:05:50.843Z,72.16
2022-10-06T21:11:00.572Z,72.23
2022-10-06T21:16:05.544Z,72.64
2022-10-06T21:21:09.626Z,72.56
2022-10-06T21:26:18.089Z,73.20
2022-10-06T21:31:24.059Z,73.45
2022-10-06T21:36:30.020Z,73.13
2022-10-06T21:41:39.666Z,73.75
2022-10-06T21:46:47.458Z,73.14
2022-10-06T21:51:53.967Z,73.49
2022-10-06T21:56:59.951Z,73.08
2022-10-06T22:02:04.061Z,73.34
2022-10-06T22:07:08.187Z,72.63
2022-10-06T22:12:14.237Z,73.24
2022-10-06T22:17:17.936Z,73.05
2022-10-06T22:22:21.479Z,72.82
2022-10-06T22:27:26.305Z,73.30
2022-10-06T22:32:29.681Z,73.68
2022-10-06T22:37:33.000Z,73.78
2022-10-06T22:42:37.659Z,74.21
2022-10-06T22:47:40.779Z,73.95
2022-10-06T22:52:44.067Z,74.53
2022-10-06T22:57:48.757Z,74.57
2022-10-06T23:02:51.845Z,74.07
2022-10-06T23:07:55.233Z,74.59
2022-10-06T23:13:00.767Z,75.07
2022-10-06T23:18:04.573Z,75.17
2022-10-06T23:23:07.908Z,75.35
2022-10-06T23:28:14.760Z,75.48
2022-10-06T23:33:18.129Z,75.74
2022-10-06T23:38:21.396Z,75.55
2022-10-06T23:43:26.153Z,75.53
2022-10-06T23:48:29.884Z,74.68
2022-10-06T23:53:33.690Z,75.12
2022-10-06T23:58:47.348Z,75.90
